March ARB Airport
KRIV : now visible

Airfield :











YOU CAN JOIN US ON...

 
LOGIN :

Register | Disclaimer

   EN    FR    IT 

 









Legend :    VFR   Marginal VFR   IFR   Intensive IFR   Very Intensive IFR
Visi :
Ceiling :
>= 8 km
>= 3000ft
5 to 8 km
1000 to 3000 ft
1500m to 5 km
500 to 1000 ft
800 to 1500m
200 to 500 ft
< 800m
< 200 ft
Symbols :   Thunderstorms  Fog  Heavy snow  Heavy precipitations  Wind > 20 kt






- Airport Elevation : 1536 ft


KRIV - March ARB

CURRENT METAR :
  • 172258Z AUTO 31013KT 10SM CLR 36/12 A2978 RMK AO2 SLP068 T03620124

EXPIRED METARs :
  • 172158Z AUTO 30014KT 10SM CLR 37/13 A2979 RMK AO2 SLP071 T03730126
  • 172058Z AUTO 31010KT 10SM CLR 37/15 A2980 RMK AO2 SLP073 T03700149 57014

TAF TAF KRIV
Valid from the 17 at 20:00 until the 19 at 02:00 UTC


172000Z 1720/1902 32009KT 9999 FEW150 SCT300 QNH2975INS TS OMTNS NE-E
TEMPO 1720/1801 32012G20KT SCT150 BKN300
BECMG 1802/1803 31006KT 9999 SCT180 SCT300 QNH2977INS
BECMG 1805/1806 VRB04KT 9999 BKN180 QNH2976INS
BECMG 1818/1819 32009KT 9999 SCT200 QNH2972INS
TEMPO 1820/1902 32012G18KT TX38/1722Z TN17/1813Z
KZLA FIR / North America



MET'MAP, your aeronautical weather chart ! - Copyright ORBIFLY December 2007 - Disclaimer

ORBIFLY MET'MAP TEAM :

Programming & Development : Alexandra Zaïnal
Concept & original design : Baudouin d'Aumeries
Assistance for programming : Marc-Olivier Méhu
Technical & hardware support : Manuel Goepfert

Contact : metmap@orbifly.com




SOURCES & CREDITS :

   NOAA       Earth
Advisory